sensor_id;sensor_type;location;lat;lon;timestamp;P1;durP1;ratioP1;P2;durP2;ratioP2
66139;SDS011;52945;51.908;8.364;2023-07-20T00:05:08;7.00;;;3.42;;
66139;SDS011;52945;51.908;8.364;2023-07-20T00:11:09;3.67;;;2.53;;
66139;SDS011;52945;51.908;8.364;2023-07-20T00:17:10;6.32;;;3.13;;
66139;SDS011;52945;51.908;8.364;2023-07-20T00:23:11;6.05;;;3.28;;
66139;SDS011;52945;51.908;8.364;2023-07-20T00:29:12;4.90;;;3.17;;
66139;SDS011;52945;51.908;8.364;2023-07-20T00:35:13;5.07;;;3.25;;
66139;SDS011;52945;51.908;8.364;2023-07-20T00:38:14;7.18;;;3.22;;
66139;SDS011;52945;51.908;8.364;2023-07-20T00:44:15;5.25;;;3.17;;
66139;SDS011;52945;51.908;8.364;2023-07-20T00:50:16;6.28;;;3.47;;
66139;SDS011;52945;51.908;8.364;2023-07-20T00:53:17;7.50;;;3.97;;
66139;SDS011;52945;51.908;8.364;2023-07-20T00:56:18;8.85;;;3.88;;
66139;SDS011;52945;51.908;8.364;2023-07-20T01:02:20;6.53;;;3.88;;
66139;SDS011;52945;51.908;8.364;2023-07-20T01:05:20;6.57;;;4.10;;
66139;SDS011;52945;51.908;8.364;2023-07-20T01:08:31;6.20;;;3.65;;
66139;SDS011;52945;51.908;8.364;2023-07-20T01:11:37;6.38;;;3.38;;
66139;SDS011;52945;51.908;8.364;2023-07-20T01:15:07;7.70;;;4.03;;
66139;SDS011;52945;51.908;8.364;2023-07-20T01:18:09;5.75;;;3.88;;
66139;SDS011;52945;51.908;8.364;2023-07-20T01:31:25;7.70;;;4.20;;
66139;SDS011;52945;51.908;8.364;2023-07-20T01:34:31;8.75;;;4.35;;
66139;SDS011;52945;51.908;8.364;2023-07-20T01:37:33;10.60;;;3.97;;
66139;SDS011;52945;51.908;8.364;2023-07-20T01:40:34;8.38;;;4.25;;
66139;SDS011;52945;51.908;8.364;2023-07-20T01:43:35;15.20;;;6.72;;
66139;SDS011;52945;51.908;8.364;2023-07-20T01:49:37;13.55;;;6.45;;
66139;SDS011;52945;51.908;8.364;2023-07-20T01:55:38;17.50;;;7.25;;
66139;SDS011;52945;51.908;8.364;2023-07-20T02:01:39;17.10;;;6.65;;
66139;SDS011;52945;51.908;8.364;2023-07-20T02:07:40;20.98;;;8.07;;
66139;SDS011;52945;51.908;8.364;2023-07-20T02:13:42;18.70;;;7.57;;
66139;SDS011;52945;51.908;8.364;2023-07-20T02:16:42;17.48;;;7.55;;
66139;SDS011;52945;51.908;8.364;2023-07-20T02:22:43;17.75;;;6.18;;
66139;SDS011;52945;51.908;8.364;2023-07-20T02:25:44;13.05;;;6.10;;
66139;SDS011;52945;51.908;8.364;2023-07-20T02:31:45;16.70;;;6.03;;
66139;SDS011;52945;51.908;8.364;2023-07-20T02:37:46;12.90;;;5.38;;
66139;SDS011;52945;51.908;8.364;2023-07-20T02:43:47;13.18;;;5.60;;
66139;SDS011;52945;51.908;8.364;2023-07-20T02:46:47;12.38;;;6.50;;
66139;SDS011;52945;51.908;8.364;2023-07-20T02:49:49;13.20;;;5.22;;
66139;SDS011;52945;51.908;8.364;2023-07-20T02:52:50;11.90;;;5.15;;
66139;SDS011;52945;51.908;8.364;2023-07-20T02:55:50;11.43;;;5.38;;
66139;SDS011;52945;51.908;8.364;2023-07-20T02:58:51;14.32;;;6.10;;
66139;SDS011;52945;51.908;8.364;2023-07-20T03:01:52;10.55;;;5.55;;
66139;SDS011;52945;51.908;8.364;2023-07-20T03:04:54;10.95;;;5.55;;
66139;SDS011;52945;51.908;8.364;2023-07-20T03:07:55;13.65;;;5.50;;
66139;SDS011;52945;51.908;8.364;2023-07-20T03:10:56;12.57;;;5.28;;
66139;SDS011;52945;51.908;8.364;2023-07-20T03:16:57;9.98;;;4.75;;
66139;SDS011;52945;51.908;8.364;2023-07-20T03:22:59;9.30;;;4.60;;
66139;SDS011;52945;51.908;8.364;2023-07-20T03:26:00;9.13;;;5.63;;
66139;SDS011;52945;51.908;8.364;2023-07-20T03:29:01;9.30;;;5.30;;
66139;SDS011;52945;51.908;8.364;2023-07-20T03:32:02;9.85;;;4.90;;
66139;SDS011;52945;51.908;8.364;2023-07-20T03:35:03;10.25;;;5.30;;
66139;SDS011;52945;51.908;8.364;2023-07-20T03:38:04;12.30;;;5.25;;
66139;SDS011;52945;51.908;8.364;2023-07-20T03:41:05;10.82;;;5.38;;
66139;SDS011;52945;51.908;8.364;2023-07-20T03:44:05;12.10;;;5.97;;
66139;SDS011;52945;51.908;8.364;2023-07-20T03:47:07;11.70;;;5.95;;
66139;SDS011;52945;51.908;8.364;2023-07-20T03:50:07;11.57;;;5.00;;
66139;SDS011;52945;51.908;8.364;2023-07-20T03:53:10;10.60;;;5.20;;
66139;SDS011;52945;51.908;8.364;2023-07-20T03:59:12;11.43;;;5.95;;
66139;SDS011;52945;51.908;8.364;2023-07-20T04:05:13;8.55;;;5.03;;
66139;SDS011;52945;51.908;8.364;2023-07-20T04:08:13;10.85;;;5.40;;
66139;SDS011;52945;51.908;8.364;2023-07-20T04:14:15;10.35;;;5.10;;
66139;SDS011;52945;51.908;8.364;2023-07-20T04:20:16;12.75;;;5.30;;
66139;SDS011;52945;51.908;8.364;2023-07-20T04:23:18;10.13;;;5.25;;
66139;SDS011;52945;51.908;8.364;2023-07-20T04:29:19;8.57;;;4.35;;
66139;SDS011;52945;51.908;8.364;2023-07-20T04:38:47;10.95;;;4.55;;
66139;SDS011;52945;51.908;8.364;2023-07-20T04:44:48;7.78;;;3.83;;
66139;SDS011;52945;51.908;8.364;2023-07-20T04:50:51;5.95;;;2.80;;
66139;SDS011;52945;51.908;8.364;2023-07-20T04:53:51;4.78;;;3.30;;
66139;SDS011;52945;51.908;8.364;2023-07-20T04:59:53;5.43;;;2.95;;
66139;SDS011;52945;51.908;8.364;2023-07-20T05:02:53;6.03;;;2.90;;
66139;SDS011;52945;51.908;8.364;2023-07-20T05:08:55;3.53;;;2.50;;
66139;SDS011;52945;51.908;8.364;2023-07-20T05:14:56;4.80;;;2.30;;
66139;SDS011;52945;51.908;8.364;2023-07-20T05:17:56;2.97;;;2.28;;
66139;SDS011;52945;51.908;8.364;2023-07-20T05:23:57;4.90;;;2.60;;
66139;SDS011;52945;51.908;8.364;2023-07-20T05:26:58;5.40;;;2.75;;
66139;SDS011;52945;51.908;8.364;2023-07-20T05:32:59;6.45;;;3.00;;
66139;SDS011;52945;51.908;8.364;2023-07-20T05:36:00;4.07;;;2.50;;
66139;SDS011;52945;51.908;8.364;2023-07-20T05:39:00;3.45;;;2.47;;
66139;SDS011;52945;51.908;8.364;2023-07-20T05:42:01;4.68;;;3.22;;
66139;SDS011;52945;51.908;8.364;2023-07-20T05:45:01;4.88;;;2.50;;
66139;SDS011;52945;51.908;8.364;2023-07-20T05:48:02;4.18;;;2.55;;
66139;SDS011;52945;51.908;8.364;2023-07-20T05:54:03;3.00;;;1.90;;
66139;SDS011;52945;51.908;8.364;2023-07-20T05:57:04;3.35;;;2.05;;
66139;SDS011;52945;51.908;8.364;2023-07-20T06:00:05;3.13;;;1.95;;
66139;SDS011;52945;51.908;8.364;2023-07-20T06:03:07;3.40;;;2.35;;
66139;SDS011;52945;51.908;8.364;2023-07-20T06:06:07;4.45;;;2.40;;
66139;SDS011;52945;51.908;8.364;2023-07-20T06:09:09;4.45;;;2.22;;
66139;SDS011;52945;51.908;8.364;2023-07-20T06:12:11;2.88;;;1.88;;
66139;SDS011;52945;51.908;8.364;2023-07-20T06:15:24;2.05;;;1.63;;
66139;SDS011;52945;51.908;8.364;2023-07-20T06:18:26;3.83;;;1.92;;
66139;SDS011;52945;51.908;8.364;2023-07-20T06:21:26;4.18;;;1.75;;
66139;SDS011;52945;51.908;8.364;2023-07-20T06:24:27;2.33;;;1.60;;
66139;SDS011;52945;51.908;8.364;2023-07-20T06:27:27;3.95;;;2.10;;
66139;SDS011;52945;51.908;8.364;2023-07-20T06:30:28;3.33;;;1.70;;
66139;SDS011;52945;51.908;8.364;2023-07-20T06:36:29;2.63;;;1.60;;
66139;SDS011;52945;51.908;8.364;2023-07-20T06:39:30;3.13;;;1.90;;
66139;SDS011;52945;51.908;8.364;2023-07-20T06:42:31;2.83;;;1.92;;
66139;SDS011;52945;51.908;8.364;2023-07-20T06:45:31;2.65;;;1.50;;
66139;SDS011;52945;51.908;8.364;2023-07-20T06:51:33;4.60;;;1.70;;
66139;SDS011;52945;51.908;8.364;2023-07-20T06:54:34;2.90;;;1.67;;
66139;SDS011;52945;51.908;8.364;2023-07-20T07:00:35;2.90;;;1.33;;
66139;SDS011;52945;51.908;8.364;2023-07-20T07:03:36;2.38;;;1.30;;
66139;SDS011;52945;51.908;8.364;2023-07-20T07:09:37;2.45;;;1.52;;
66139;SDS011;52945;51.908;8.364;2023-07-20T07:15:38;1.83;;;1.30;;
66139;SDS011;52945;51.908;8.364;2023-07-20T07:21:40;2.10;;;1.60;;
66139;SDS011;52945;51.908;8.364;2023-07-20T07:27:41;1.35;;;1.20;;
66139;SDS011;52945;51.908;8.364;2023-07-20T07:33:42;2.33;;;1.05;;
66139;SDS011;52945;51.908;8.364;2023-07-20T07:36:43;1.85;;;1.10;;
66139;SDS011;52945;51.908;8.364;2023-07-20T07:39:45;2.13;;;1.30;;
66139;SDS011;52945;51.908;8.364;2023-07-20T07:45:46;1.42;;;1.20;;
66139;SDS011;52945;51.908;8.364;2023-07-20T07:51:47;1.30;;;1.00;;
66139;SDS011;52945;51.908;8.364;2023-07-20T07:57:49;1.08;;;0.80;;
66139;SDS011;52945;51.908;8.364;2023-07-20T08:03:50;1.05;;;0.90;;
66139;SDS011;52945;51.908;8.364;2023-07-20T08:09:51;1.58;;;0.85;;
66139;SDS011;52945;51.908;8.364;2023-07-20T08:12:52;1.02;;;0.80;;
66139;SDS011;52945;51.908;8.364;2023-07-20T08:15:52;1.00;;;0.90;;
66139;SDS011;52945;51.908;8.364;2023-07-20T08:18:53;0.90;;;0.90;;
66139;SDS011;52945;51.908;8.364;2023-07-20T08:24:54;0.73;;;0.60;;
66139;SDS011;52945;51.908;8.364;2023-07-20T08:27:55;0.80;;;0.80;;
66139;SDS011;52945;51.908;8.364;2023-07-20T08:33:56;0.80;;;0.57;;
66139;SDS011;52945;51.908;8.364;2023-07-20T08:36:57;0.60;;;0.60;;
66139;SDS011;52945;51.908;8.364;2023-07-20T08:39:58;0.63;;;0.63;;
66139;SDS011;52945;51.908;8.364;2023-07-20T08:46:02;1.98;;;1.05;;
66139;SDS011;52945;51.908;8.364;2023-07-20T08:49:04;7.10;;;1.05;;
66139;SDS011;52945;51.908;8.364;2023-07-20T08:52:06;4.63;;;0.95;;
66139;SDS011;52945;51.908;8.364;2023-07-20T08:55:07;4.97;;;1.00;;
66139;SDS011;52945;51.908;8.364;2023-07-20T08:58:08;3.53;;;0.85;;
66139;SDS011;52945;51.908;8.364;2023-07-20T09:01:12;0.85;;;0.75;;
66139;SDS011;52945;51.908;8.364;2023-07-20T09:04:13;0.65;;;0.65;;
66139;SDS011;52945;51.908;8.364;2023-07-20T09:07:13;1.30;;;0.80;;
66139;SDS011;52945;51.908;8.364;2023-07-20T09:10:15;0.60;;;0.60;;
66139;SDS011;52945;51.908;8.364;2023-07-20T09:13:16;0.70;;;0.70;;
66139;SDS011;52945;51.908;8.364;2023-07-20T09:16:17;0.75;;;0.57;;
66139;SDS011;52945;51.908;8.364;2023-07-20T09:19:17;2.28;;;0.70;;
66139;SDS011;52945;51.908;8.364;2023-07-20T09:22:18;0.75;;;0.52;;
66139;SDS011;52945;51.908;8.364;2023-07-20T09:25:19;0.52;;;0.52;;
66139;SDS011;52945;51.908;8.364;2023-07-20T09:28:20;0.80;;;0.60;;
66139;SDS011;52945;51.908;8.364;2023-07-20T09:31:21;0.40;;;0.40;;
66139;SDS011;52945;51.908;8.364;2023-07-20T09:34:22;3.17;;;0.70;;
66139;SDS011;52945;51.908;8.364;2023-07-20T09:37:23;0.40;;;0.40;;
66139;SDS011;52945;51.908;8.364;2023-07-20T09:40:24;0.80;;;0.60;;
66139;SDS011;52945;51.908;8.364;2023-07-20T09:43:28;1.25;;;0.65;;
66139;SDS011;52945;51.908;8.364;2023-07-20T09:46:40;1.13;;;0.77;;
66139;SDS011;52945;51.908;8.364;2023-07-20T09:49:45;1.23;;;0.60;;
66139;SDS011;52945;51.908;8.364;2023-07-20T09:52:45;1.20;;;0.55;;
66139;SDS011;52945;51.908;8.364;2023-07-20T09:55:47;0.50;;;0.50;;
66139;SDS011;52945;51.908;8.364;2023-07-20T09:58:48;0.65;;;0.60;;
66139;SDS011;52945;51.908;8.364;2023-07-20T10:01:49;1.70;;;0.70;;
66139;SDS011;52945;51.908;8.364;2023-07-20T10:04:53;0.60;;;0.60;;
66139;SDS011;52945;51.908;8.364;2023-07-20T10:07:54;1.35;;;0.60;;
66139;SDS011;52945;51.908;8.364;2023-07-20T10:10:55;0.75;;;0.52;;
66139;SDS011;52945;51.908;8.364;2023-07-20T10:13:59;1.70;;;0.70;;
66139;SDS011;52945;51.908;8.364;2023-07-20T10:17:03;1.10;;;0.80;;
66139;SDS011;52945;51.908;8.364;2023-07-20T10:20:05;0.82;;;0.70;;
66139;SDS011;52945;51.908;8.364;2023-07-20T10:23:07;1.88;;;1.25;;
66139;SDS011;52945;51.908;8.364;2023-07-20T10:26:09;0.90;;;0.90;;
66139;SDS011;52945;51.908;8.364;2023-07-20T10:29:10;2.20;;;0.82;;
66139;SDS011;52945;51.908;8.364;2023-07-20T10:32:12;1.10;;;1.00;;
66139;SDS011;52945;51.908;8.364;2023-07-20T10:35:14;2.53;;;0.93;;
66139;SDS011;52945;51.908;8.364;2023-07-20T10:38:15;1.05;;;0.95;;
66139;SDS011;52945;51.908;8.364;2023-07-20T10:44:20;1.10;;;0.98;;
66139;SDS011;52945;51.908;8.364;2023-07-20T10:47:21;1.30;;;1.20;;
66139;SDS011;52945;51.908;8.364;2023-07-20T10:50:21;1.63;;;1.20;;
66139;SDS011;52945;51.908;8.364;2023-07-20T10:53:22;1.33;;;1.20;;
66139;SDS011;52945;51.908;8.364;2023-07-20T10:56:23;1.80;;;1.25;;
66139;SDS011;52945;51.908;8.364;2023-07-20T11:02:29;1.50;;;1.40;;
66139;SDS011;52945;51.908;8.364;2023-07-20T11:05:42;1.60;;;1.20;;
66139;SDS011;52945;51.908;8.364;2023-07-20T11:08:43;1.23;;;1.13;;
66139;SDS011;52945;51.908;8.364;2023-07-20T11:11:44;1.92;;;1.30;;
66139;SDS011;52945;51.908;8.364;2023-07-20T11:14:54;1.70;;;1.60;;
66139;SDS011;52945;51.908;8.364;2023-07-20T11:18:10;2.03;;;1.30;;
66139;SDS011;52945;51.908;8.364;2023-07-20T11:21:12;1.70;;;1.52;;
66139;SDS011;52945;51.908;8.364;2023-07-20T11:24:14;1.80;;;1.65;;
66139;SDS011;52945;51.908;8.364;2023-07-20T11:27:15;2.15;;;1.55;;
66139;SDS011;52945;51.908;8.364;2023-07-20T11:30:16;1.63;;;1.50;;
66139;SDS011;52945;51.908;8.364;2023-07-20T11:33:16;1.88;;;1.60;;
66139;SDS011;52945;51.908;8.364;2023-07-20T11:36:17;1.63;;;1.50;;
66139;SDS011;52945;51.908;8.364;2023-07-20T11:39:18;2.95;;;1.40;;
66139;SDS011;52945;51.908;8.364;2023-07-20T11:42:19;1.20;;;1.10;;
66139;SDS011;52945;51.908;8.364;2023-07-20T11:45:20;1.13;;;1.13;;
66139;SDS011;52945;51.908;8.364;2023-07-20T11:48:21;1.40;;;1.23;;
66139;SDS011;52945;51.908;8.364;2023-07-20T11:51:22;1.10;;;1.10;;
66139;SDS011;52945;51.908;8.364;2023-07-20T11:54:23;1.38;;;1.27;;
66139;SDS011;52945;51.908;8.364;2023-07-20T11:57:25;1.23;;;1.15;;
66139;SDS011;52945;51.908;8.364;2023-07-20T12:00:26;1.05;;;1.00;;
66139;SDS011;52945;51.908;8.364;2023-07-20T12:03:27;0.90;;;0.90;;
66139;SDS011;52945;51.908;8.364;2023-07-20T12:06:28;1.10;;;0.95;;
66139;SDS011;52945;51.908;8.364;2023-07-20T12:09:29;1.10;;;1.00;;
66139;SDS011;52945;51.908;8.364;2023-07-20T12:12:31;0.98;;;0.90;;
66139;SDS011;52945;51.908;8.364;2023-07-20T12:15:32;0.98;;;0.85;;
66139;SDS011;52945;51.908;8.364;2023-07-20T12:18:36;1.13;;;0.77;;
66139;SDS011;52945;51.908;8.364;2023-07-20T12:21:40;1.00;;;0.90;;
66139;SDS011;52945;51.908;8.364;2023-07-20T12:24:42;0.60;;;0.60;;
66139;SDS011;52945;51.908;8.364;2023-07-20T12:27:44;0.93;;;0.77;;
66139;SDS011;52945;51.908;8.364;2023-07-20T12:30:45;1.40;;;0.82;;
66139;SDS011;52945;51.908;8.364;2023-07-20T12:33:46;1.20;;;0.57;;
66139;SDS011;52945;51.908;8.364;2023-07-20T12:36:47;0.77;;;0.60;;
66139;SDS011;52945;51.908;8.364;2023-07-20T12:39:48;0.50;;;0.50;;
66139;SDS011;52945;51.908;8.364;2023-07-20T12:42:48;0.45;;;0.45;;
66139;SDS011;52945;51.908;8.364;2023-07-20T12:45:49;0.55;;;0.50;;
66139;SDS011;52945;51.908;8.364;2023-07-20T12:48:49;0.65;;;0.50;;
66139;SDS011;52945;51.908;8.364;2023-07-20T12:51:50;0.47;;;0.47;;
66139;SDS011;52945;51.908;8.364;2023-07-20T12:54:50;0.47;;;0.47;;
66139;SDS011;52945;51.908;8.364;2023-07-20T12:57:51;0.60;;;0.57;;
66139;SDS011;52945;51.908;8.364;2023-07-20T13:00:52;0.40;;;0.40;;
66139;SDS011;52945;51.908;8.364;2023-07-20T13:03:53;0.75;;;0.47;;
66139;SDS011;52945;51.908;8.364;2023-07-20T13:06:54;0.47;;;0.47;;
66139;SDS011;52945;51.908;8.364;2023-07-20T13:09:55;0.50;;;0.50;;
66139;SDS011;52945;51.908;8.364;2023-07-20T13:12:56;0.50;;;0.50;;
66139;SDS011;52945;51.908;8.364;2023-07-20T13:15:57;0.75;;;0.45;;
66139;SDS011;52945;51.908;8.364;2023-07-20T13:18:58;2.40;;;0.47;;
66139;SDS011;52945;51.908;8.364;2023-07-20T13:21:58;0.35;;;0.35;;
66139;SDS011;52945;51.908;8.364;2023-07-20T13:24:59;0.40;;;0.40;;
66139;SDS011;52945;51.908;8.364;2023-07-20T13:27:59;0.68;;;0.30;;
66139;SDS011;52945;51.908;8.364;2023-07-20T13:31:00;0.40;;;0.40;;
66139;SDS011;52945;51.908;8.364;2023-07-20T13:34:00;0.75;;;0.50;;
66139;SDS011;52945;51.908;8.364;2023-07-20T13:37:01;0.45;;;0.45;;
66139;SDS011;52945;51.908;8.364;2023-07-20T13:40:02;0.20;;;0.20;;
66139;SDS011;52945;51.908;8.364;2023-07-20T13:43:06;1.10;;;0.40;;
66139;SDS011;52945;51.908;8.364;2023-07-20T13:46:06;0.90;;;0.38;;
66139;SDS011;52945;51.908;8.364;2023-07-20T13:49:07;0.47;;;0.30;;
66139;SDS011;52945;51.908;8.364;2023-07-20T13:52:08;0.52;;;0.45;;
66139;SDS011;52945;51.908;8.364;2023-07-20T13:55:08;0.50;;;0.40;;
66139;SDS011;52945;51.908;8.364;2023-07-20T13:58:09;1.92;;;0.43;;
66139;SDS011;52945;51.908;8.364;2023-07-20T14:01:10;0.47;;;0.35;;
66139;SDS011;52945;51.908;8.364;2023-07-20T14:04:11;0.47;;;0.47;;
66139;SDS011;52945;51.908;8.364;2023-07-20T14:07:11;0.85;;;0.35;;
66139;SDS011;52945;51.908;8.364;2023-07-20T14:10:12;1.35;;;0.40;;
66139;SDS011;52945;51.908;8.364;2023-07-20T14:13:13;0.90;;;0.82;;
66139;SDS011;52945;51.908;8.364;2023-07-20T14:16:14;1.13;;;0.43;;
66139;SDS011;52945;51.908;8.364;2023-07-20T14:19:14;1.15;;;0.60;;
66139;SDS011;52945;51.908;8.364;2023-07-20T14:22:15;0.35;;;0.35;;
66139;SDS011;52945;51.908;8.364;2023-07-20T14:25:15;1.00;;;0.45;;
66139;SDS011;52945;51.908;8.364;2023-07-20T14:28:16;0.50;;;0.50;;
66139;SDS011;52945;51.908;8.364;2023-07-20T14:31:17;1.08;;;0.45;;
66139;SDS011;52945;51.908;8.364;2023-07-20T14:34:18;0.50;;;0.50;;
66139;SDS011;52945;51.908;8.364;2023-07-20T14:37:19;0.35;;;0.35;;
66139;SDS011;52945;51.908;8.364;2023-07-20T14:40:19;0.30;;;0.30;;
66139;SDS011;52945;51.908;8.364;2023-07-20T14:43:20;0.47;;;0.47;;
66139;SDS011;52945;51.908;8.364;2023-07-20T14:46:21;0.30;;;0.30;;
66139;SDS011;52945;51.908;8.364;2023-07-20T14:49:21;0.47;;;0.45;;
66139;SDS011;52945;51.908;8.364;2023-07-20T14:52:22;0.28;;;0.28;;
66139;SDS011;52945;51.908;8.364;2023-07-20T14:55:23;0.60;;;0.40;;
66139;SDS011;52945;51.908;8.364;2023-07-20T14:58:24;0.40;;;0.40;;
66139;SDS011;52945;51.908;8.364;2023-07-20T15:01:24;0.30;;;0.30;;
66139;SDS011;52945;51.908;8.364;2023-07-20T15:04:25;0.98;;;0.40;;
66139;SDS011;52945;51.908;8.364;2023-07-20T15:07:26;0.60;;;0.50;;
66139;SDS011;52945;51.908;8.364;2023-07-20T15:10:27;0.90;;;0.70;;
66139;SDS011;52945;51.908;8.364;2023-07-20T15:13:29;0.73;;;0.60;;
66139;SDS011;52945;51.908;8.364;2023-07-20T15:16:29;1.23;;;0.60;;
66139;SDS011;52945;51.908;8.364;2023-07-20T15:19:30;2.25;;;0.40;;
66139;SDS011;52945;51.908;8.364;2023-07-20T15:22:31;0.80;;;0.35;;
66139;SDS011;52945;51.908;8.364;2023-07-20T15:25:33;1.15;;;0.40;;
66139;SDS011;52945;51.908;8.364;2023-07-20T15:28:34;0.47;;;0.45;;
66139;SDS011;52945;51.908;8.364;2023-07-20T15:31:34;0.52;;;0.50;;
66139;SDS011;52945;51.908;8.364;2023-07-20T15:34:36;0.85;;;0.50;;
66139;SDS011;52945;51.908;8.364;2023-07-20T15:37:36;0.43;;;0.43;;
66139;SDS011;52945;51.908;8.364;2023-07-20T15:40:37;0.50;;;0.50;;
66139;SDS011;52945;51.908;8.364;2023-07-20T15:43:43;0.30;;;0.30;;
66139;SDS011;52945;51.908;8.364;2023-07-20T15:46:44;0.73;;;0.50;;
66139;SDS011;52945;51.908;8.364;2023-07-20T15:49:46;0.60;;;0.60;;
66139;SDS011;52945;51.908;8.364;2023-07-20T15:52:47;0.52;;;0.50;;
66139;SDS011;52945;51.908;8.364;2023-07-20T15:55:52;0.80;;;0.68;;
66139;SDS011;52945;51.908;8.364;2023-07-20T15:58:54;1.02;;;0.47;;
66139;SDS011;52945;51.908;8.364;2023-07-20T16:01:55;0.55;;;0.40;;
66139;SDS011;52945;51.908;8.364;2023-07-20T16:04:56;0.50;;;0.50;;
66139;SDS011;52945;51.908;8.364;2023-07-20T16:07:56;0.35;;;0.35;;
66139;SDS011;52945;51.908;8.364;2023-07-20T16:10:57;0.65;;;0.50;;
66139;SDS011;52945;51.908;8.364;2023-07-20T16:13:57;0.50;;;0.50;;
66139;SDS011;52945;51.908;8.364;2023-07-20T16:17:00;0.82;;;0.45;;
66139;SDS011;52945;51.908;8.364;2023-07-20T16:20:02;0.45;;;0.45;;
66139;SDS011;52945;51.908;8.364;2023-07-20T16:23:04;1.00;;;0.47;;
66139;SDS011;52945;51.908;8.364;2023-07-20T16:26:05;0.85;;;0.57;;
66139;SDS011;52945;51.908;8.364;2023-07-20T16:29:06;1.55;;;0.55;;
66139;SDS011;52945;51.908;8.364;2023-07-20T16:32:06;0.40;;;0.40;;
66139;SDS011;52945;51.908;8.364;2023-07-20T16:35:07;0.80;;;0.40;;
66139;SDS011;52945;51.908;8.364;2023-07-20T16:38:08;1.17;;;0.63;;
66139;SDS011;52945;51.908;8.364;2023-07-20T16:41:10;0.55;;;0.50;;
66139;SDS011;52945;51.908;8.364;2023-07-20T16:44:11;3.03;;;0.60;;
66139;SDS011;52945;51.908;8.364;2023-07-20T16:47:12;0.68;;;0.50;;
66139;SDS011;52945;51.908;8.364;2023-07-20T16:50:12;0.30;;;0.30;;
66139;SDS011;52945;51.908;8.364;2023-07-20T16:53:15;0.28;;;0.28;;
66139;SDS011;52945;51.908;8.364;2023-07-20T16:56:15;0.45;;;0.45;;
66139;SDS011;52945;51.908;8.364;2023-07-20T16:59:16;0.52;;;0.52;;
66139;SDS011;52945;51.908;8.364;2023-07-20T17:02:18;1.77;;;0.60;;
66139;SDS011;52945;51.908;8.364;2023-07-20T17:05:19;0.73;;;0.55;;
66139;SDS011;52945;51.908;8.364;2023-07-20T17:08:19;0.57;;;0.50;;
66139;SDS011;52945;51.908;8.364;2023-07-20T17:11:20;0.98;;;0.47;;
66139;SDS011;52945;51.908;8.364;2023-07-20T17:14:21;0.98;;;0.52;;
66139;SDS011;52945;51.908;8.364;2023-07-20T17:17:21;2.65;;;0.40;;
66139;SDS011;52945;51.908;8.364;2023-07-20T17:20:22;0.80;;;0.63;;
66139;SDS011;52945;51.908;8.364;2023-07-20T17:23:22;0.60;;;0.52;;
66139;SDS011;52945;51.908;8.364;2023-07-20T17:26:23;0.60;;;0.50;;
66139;SDS011;52945;51.908;8.364;2023-07-20T17:29:23;0.40;;;0.40;;
66139;SDS011;52945;51.908;8.364;2023-07-20T17:32:24;1.65;;;0.65;;
66139;SDS011;52945;51.908;8.364;2023-07-20T17:35:25;0.85;;;0.60;;
66139;SDS011;52945;51.908;8.364;2023-07-20T17:38:27;0.85;;;0.57;;
66139;SDS011;52945;51.908;8.364;2023-07-20T17:41:28;0.60;;;0.52;;
66139;SDS011;52945;51.908;8.364;2023-07-20T17:44:29;0.47;;;0.47;;
66139;SDS011;52945;51.908;8.364;2023-07-20T17:47:29;3.28;;;0.60;;
66139;SDS011;52945;51.908;8.364;2023-07-20T17:50:30;0.60;;;0.60;;
66139;SDS011;52945;51.908;8.364;2023-07-20T17:53:31;0.50;;;0.50;;
66139;SDS011;52945;51.908;8.364;2023-07-20T17:56:31;1.02;;;0.50;;
66139;SDS011;52945;51.908;8.364;2023-07-20T17:59:33;0.55;;;0.47;;
66139;SDS011;52945;51.908;8.364;2023-07-20T18:02:37;1.13;;;0.50;;
66139;SDS011;52945;51.908;8.364;2023-07-20T18:05:38;0.85;;;0.50;;
66139;SDS011;52945;51.908;8.364;2023-07-20T18:08:39;1.13;;;0.55;;
66139;SDS011;52945;51.908;8.364;2023-07-20T18:11:41;0.77;;;0.40;;
66139;SDS011;52945;51.908;8.364;2023-07-20T18:14:41;0.82;;;0.60;;
66139;SDS011;52945;51.908;8.364;2023-07-20T18:17:42;0.90;;;0.60;;
66139;SDS011;52945;51.908;8.364;2023-07-20T18:20:42;1.58;;;0.55;;
66139;SDS011;52945;51.908;8.364;2023-07-20T18:23:43;1.35;;;0.70;;
66139;SDS011;52945;51.908;8.364;2023-07-20T18:26:43;0.73;;;0.68;;
66139;SDS011;52945;51.908;8.364;2023-07-20T18:29:44;0.60;;;0.60;;
66139;SDS011;52945;51.908;8.364;2023-07-20T18:32:45;0.50;;;0.50;;
66139;SDS011;52945;51.908;8.364;2023-07-20T18:35:45;0.57;;;0.57;;
66139;SDS011;52945;51.908;8.364;2023-07-20T18:38:46;0.40;;;0.32;;
66139;SDS011;52945;51.908;8.364;2023-07-20T18:41:47;1.00;;;0.63;;
66139;SDS011;52945;51.908;8.364;2023-07-20T18:44:47;0.65;;;0.65;;
66139;SDS011;52945;51.908;8.364;2023-07-20T18:47:48;1.85;;;0.60;;
66139;SDS011;52945;51.908;8.364;2023-07-20T18:50:48;0.90;;;0.45;;
66139;SDS011;52945;51.908;8.364;2023-07-20T18:53:49;1.67;;;0.60;;
66139;SDS011;52945;51.908;8.364;2023-07-20T18:56:49;0.82;;;0.60;;
66139;SDS011;52945;51.908;8.364;2023-07-20T18:59:51;0.80;;;0.80;;
66139;SDS011;52945;51.908;8.364;2023-07-20T19:02:52;0.55;;;0.55;;
66139;SDS011;52945;51.908;8.364;2023-07-20T19:05:52;1.08;;;0.65;;
66139;SDS011;52945;51.908;8.364;2023-07-20T19:08:53;0.73;;;0.55;;
66139;SDS011;52945;51.908;8.364;2023-07-20T19:11:54;0.68;;;0.55;;
66139;SDS011;52945;51.908;8.364;2023-07-20T19:14:55;0.60;;;0.60;;
66139;SDS011;52945;51.908;8.364;2023-07-20T19:17:56;0.60;;;0.60;;
66139;SDS011;52945;51.908;8.364;2023-07-20T19:21:00;0.75;;;0.52;;
66139;SDS011;52945;51.908;8.364;2023-07-20T19:24:01;1.35;;;0.60;;
66139;SDS011;52945;51.908;8.364;2023-07-20T19:27:02;0.93;;;0.70;;
66139;SDS011;52945;51.908;8.364;2023-07-20T19:30:04;1.30;;;0.70;;
66139;SDS011;52945;51.908;8.364;2023-07-20T19:33:05;0.65;;;0.65;;
66139;SDS011;52945;51.908;8.364;2023-07-20T19:36:06;0.93;;;0.57;;
66139;SDS011;52945;51.908;8.364;2023-07-20T19:39:06;0.63;;;0.60;;
66139;SDS011;52945;51.908;8.364;2023-07-20T19:42:07;0.80;;;0.70;;
66139;SDS011;52945;51.908;8.364;2023-07-20T19:45:07;1.65;;;0.68;;
66139;SDS011;52945;51.908;8.364;2023-07-20T19:48:08;0.57;;;0.57;;
66139;SDS011;52945;51.908;8.364;2023-07-20T19:51:09;0.70;;;0.70;;
66139;SDS011;52945;51.908;8.364;2023-07-20T19:54:10;1.05;;;0.70;;
66139;SDS011;52945;51.908;8.364;2023-07-20T19:57:10;0.80;;;0.75;;
66139;SDS011;52945;51.908;8.364;2023-07-20T20:00:11;1.23;;;0.80;;
66139;SDS011;52945;51.908;8.364;2023-07-20T20:03:11;0.85;;;0.82;;
66139;SDS011;52945;51.908;8.364;2023-07-20T20:06:12;1.45;;;0.80;;
66139;SDS011;52945;51.908;8.364;2023-07-20T20:09:13;0.80;;;0.80;;
66139;SDS011;52945;51.908;8.364;2023-07-20T20:12:18;0.82;;;0.60;;
66139;SDS011;52945;51.908;8.364;2023-07-20T20:15:19;0.88;;;0.65;;
66139;SDS011;52945;51.908;8.364;2023-07-20T20:18:19;0.82;;;0.70;;
66139;SDS011;52945;51.908;8.364;2023-07-20T20:21:22;1.00;;;0.77;;
66139;SDS011;52945;51.908;8.364;2023-07-20T20:24:23;1.45;;;1.00;;
66139;SDS011;52945;51.908;8.364;2023-07-20T20:27:23;1.15;;;0.95;;
66139;SDS011;52945;51.908;8.364;2023-07-20T20:30:24;1.38;;;0.77;;
66139;SDS011;52945;51.908;8.364;2023-07-20T20:33:24;0.93;;;0.80;;
66139;SDS011;52945;51.908;8.364;2023-07-20T20:36:25;1.23;;;1.05;;
66139;SDS011;52945;51.908;8.364;2023-07-20T20:39:27;1.60;;;1.00;;
66139;SDS011;52945;51.908;8.364;2023-07-20T20:42:28;1.88;;;1.10;;
66139;SDS011;52945;51.908;8.364;2023-07-20T20:45:28;1.17;;;1.00;;
66139;SDS011;52945;51.908;8.364;2023-07-20T20:48:29;2.10;;;1.23;;
66139;SDS011;52945;51.908;8.364;2023-07-20T20:51:30;1.63;;;1.10;;
66139;SDS011;52945;51.908;8.364;2023-07-20T20:54:32;1.25;;;1.10;;
66139;SDS011;52945;51.908;8.364;2023-07-20T20:57:32;1.98;;;1.23;;
66139;SDS011;52945;51.908;8.364;2023-07-20T21:00:33;2.15;;;1.40;;